Time;durP1;ratioP1;P1;durP2;ratioP2;P2;SDS_P1;SDS_P2;PMS_P1;PMS_P2;Temp;Humidity;BMP_temperature;BMP_pressure;BME280_temperature;BME280_humidity;BME280_pressure;Samples;Min_cycle;Max_cycle;Signal;HPM_P1;HPM_P2
2021/10/02 00:38:08;;;;;;;5.95;2.40;;;12.90;99.90;;;;;;6722049;88;20186;-77
2021/10/02 00:48:09;;;;;;;5.15;2.58;;;12.90;99.90;;;;;;6724633;88;20637;-78
2021/10/02 00:58:11;;;;;;;5.57;2.60;;;12.80;99.90;;;;;;6716679;88;20344;-77
2021/10/02 01:09:06;;;;;;;4.57;1.92;;;12.90;99.90;;;;;;6668305;89;20985;-78
2021/10/02 01:19:44;;;;;;;4.72;2.42;;;13.00;99.90;;;;;;6662191;88;20700;-77
2021/10/02 01:29:46;;;;;;;8.43;3.10;;;13.00;99.90;;;;;;6664581;89;20227;-77
2021/10/02 01:50:08;;;;;;;5.47;2.00;;;12.90;99.90;;;;;;6667771;89;20706;-77
2021/10/02 02:00:11;;;;;;;5.78;2.12;;;12.80;99.90;;;;;;6669071;89;20192;-77
2021/10/02 02:10:12;;;;;;;2.83;1.83;;;12.80;99.90;;;;;;6669598;88;20255;-77
2021/10/02 02:20:20;;;;;;;3.22;1.60;;;12.90;99.90;;;;;;6667132;89;20754;-79
2021/10/02 02:30:22;;;;;;;3.92;1.40;;;12.90;99.90;;;;;;6665569;89;20246;-77
2021/10/02 02:40:23;;;;;;;2.40;1.30;;;12.90;99.90;;;;;;6667508;89;20192;-78
2021/10/02 02:50:32;;;;;;;2.95;1.20;;;13.00;99.90;;;;;;6668988;89;20316;-78
2021/10/02 03:00:42;;;;;;;3.10;1.35;;;13.10;99.90;;;;;;6672837;88;20217;-77
2021/10/02 03:10:47;;;;;;;1.77;0.88;;;13.10;99.90;;;;;;6660351;88;20228;-77
2021/10/02 03:20:53;;;;;;;4.47;1.00;;;13.10;99.90;;;;;;6668387;89;20327;-77
2021/10/02 03:30:55;;;;;;;2.25;0.90;;;13.20;99.90;;;;;;6668383;89;20185;-77
2021/10/02 03:41:00;;;;;;;1.50;0.82;;;13.30;99.90;;;;;;6668534;89;20602;-77
2021/10/02 03:51:01;;;;;;;2.20;0.80;;;13.30;99.90;;;;;;6666883;89;20185;-79
2021/10/02 04:01:03;;;;;;;3.35;0.90;;;13.50;99.90;;;;;;6668785;89;20217;-77
2021/10/02 04:11:06;;;;;;;2.10;0.80;;;13.50;99.90;;;;;;6668187;89;20236;-78
2021/10/02 04:21:06;;;;;;;2.00;0.70;;;13.40;99.90;;;;;;6667719;89;20188;-78
2021/10/02 04:31:07;;;;;;;1.83;1.08;;;13.40;99.90;;;;;;6666935;89;20208;-78
2021/10/02 04:41:09;;;;;;;2.67;0.85;;;13.40;99.90;;;;;;6667970;89;20387;-77
2021/10/02 04:51:10;;;;;;;1.58;0.77;;;13.40;99.90;;;;;;6669076;89;20254;-78
2021/10/02 05:01:11;;;;;;;1.73;0.95;;;13.40;99.90;;;;;;6669688;89;20267;-78
2021/10/02 05:11:12;;;;;;;2.00;0.95;;;13.30;99.90;;;;;;6670616;88;20341;-78
2021/10/02 05:21:13;;;;;;;2.42;1.20;;;13.20;99.90;;;;;;6669120;89;20195;-78
2021/10/02 05:31:16;;;;;;;2.80;1.30;;;13.20;99.90;;;;;;6669755;89;20206;-78
2021/10/02 05:41:16;;;;;;;3.15;1.90;;;13.10;99.90;;;;;;6668393;89;20206;-78
2021/10/02 05:51:17;;;;;;;5.72;2.05;;;13.00;99.90;;;;;;6668834;89;20188;-78
2021/10/02 06:01:18;;;;;;;3.58;1.92;;;13.30;99.90;;;;;;6719458;77;20894;-77
2021/10/02 06:11:18;;;;;;;3.03;1.87;;;13.20;99.90;;;;;;6728890;88;20315;-79
2021/10/02 06:21:19;;;;;;;6.78;2.17;;;13.20;99.90;;;;;;6722705;88;20209;-79
2021/10/02 06:31:20;;;;;;;3.12;1.98;;;13.20;99.90;;;;;;6724035;88;20194;-79
2021/10/02 06:41:21;;;;;;;4.12;1.75;;;13.30;99.90;;;;;;6722804;88;20585;-77
2021/10/02 06:51:22;;;;;;;4.50;1.77;;;13.40;99.90;;;;;;6720794;88;20248;-77
2021/10/02 07:01:22;;;;;;;6.80;1.87;;;13.50;99.90;;;;;;6712504;88;20201;-77
2021/10/02 07:11:23;;;;;;;3.85;1.60;;;13.70;99.90;;;;;;6722563;88;20711;-77
2021/10/02 07:21:23;;;;;;;5.53;1.90;;;13.80;99.90;;;;;;6720872;88;20219;-77
2021/10/02 07:31:24;;;;;;;3.87;1.90;;;14.20;99.90;;;;;;6716718;88;20725;-78
2021/10/02 07:41:26;;;;;;;3.80;1.85;;;14.30;99.90;;;;;;6721552;88;20783;-80
2021/10/02 07:51:27;;;;;;;5.85;2.20;;;14.40;99.90;;;;;;6707948;88;20235;-79
2021/10/02 08:01:28;;;;;;;4.22;1.70;;;14.50;99.90;;;;;;6713784;88;20792;-81
2021/10/02 08:11:29;;;;;;;4.40;1.77;;;14.70;99.90;;;;;;6727807;88;20220;-81
2021/10/02 08:21:30;;;;;;;3.65;1.62;;;14.90;99.90;;;;;;6725792;88;20266;-79
2021/10/02 08:31:31;;;;;;;3.53;1.48;;;15.00;99.90;;;;;;6721125;88;20739;-79
2021/10/02 08:41:33;;;;;;;2.65;1.25;;;15.10;99.90;;;;;;6723408;88;20321;-80
2021/10/02 08:51:36;;;;;;;3.22;0.95;;;15.40;99.90;;;;;;6723474;88;20255;-78
2021/10/02 09:01:37;;;;;;;1.12;0.62;;;16.60;99.90;;;;;;6724128;88;20336;-79
2021/10/02 09:11:38;;;;;;;1.58;0.60;;;17.10;99.90;;;;;;6740935;88;20275;-79
2021/10/02 09:21:42;;;;;;;1.40;0.55;;;17.20;99.90;;;;;;6725172;88;20186;-79
2021/10/02 09:31:44;;;;;;;1.70;0.70;;;17.60;99.90;;;;;;6727795;88;20240;-79
2021/10/02 09:41:52;;;;;;;1.75;0.50;;;18.40;99.90;;;;;;6741288;88;20338;-79
2021/10/02 09:51:53;;;;;;;1.30;0.60;;;18.10;99.90;;;;;;6741084;88;20254;-80
2021/10/02 10:02:10;;;;;;;2.22;0.70;;;17.50;99.90;;;;;;6743686;88;20192;-81
2021/10/02 10:12:22;;;;;;;2.87;1.70;;;17.10;99.90;;;;;;6737594;88;20243;-79
2021/10/02 10:22:23;;;;;;;3.28;1.20;;;16.80;99.90;;;;;;6731393;88;20196;-79
2021/10/02 10:32:24;;;;;;;3.00;1.20;;;16.50;99.90;;;;;;6735028;88;20247;-78
2021/10/02 10:42:29;;;;;;;3.43;1.10;;;16.30;99.90;;;;;;6733706;88;20977;-78
2021/10/02 10:52:36;;;;;;;;;;;16.10;99.90;;;;;;6740720;88;20199;-80
2021/10/02 11:02:47;;;;;;;2.55;1.48;;;15.90;99.90;;;;;;6742242;88;20091;-78
2021/10/02 11:12:54;;;;;;;2.92;1.20;;;16.00;99.90;;;;;;6734052;88;20200;-79
2021/10/02 11:23:32;;;;;;;2.30;1.50;;;15.90;99.90;;;;;;6736219;88;20247;-80
2021/10/02 11:33:35;;;;;;;1.95;1.23;;;15.90;99.90;;;;;;6729569;88;20208;-80
2021/10/02 11:43:36;;;;;;;6.85;1.70;;;15.90;99.90;;;;;;6729744;88;20178;-81
2021/10/02 11:53:57;;;;;;;3.78;1.33;;;16.10;99.90;;;;;;6731363;88;20177;-80
2021/10/02 12:04:17;;;;;;;3.95;1.48;;;16.40;99.90;;;;;;6681572;77;20199;-76
2021/10/02 12:14:20;;;;;;;1.87;1.10;;;17.40;99.90;;;;;;6672045;89;20251;-76
2021/10/02 12:24:36;;;;;;;3.00;1.12;;;17.50;99.90;;;;;;6675480;89;20826;-79
2021/10/02 12:34:40;;;;;;;2.12;1.30;;;17.40;99.90;;;;;;6682206;89;20183;-79
2021/10/02 12:44:46;;;;;;;2.27;1.30;;;17.40;99.90;;;;;;6681247;89;20243;-78
2021/10/02 12:54:53;;;;;;;2.65;1.02;;;18.00;99.90;;;;;;6679182;89;20300;-78
2021/10/02 13:04:54;;;;;;;1.95;0.90;;;19.80;99.90;;;;;;6673016;89;20205;-78
2021/10/02 13:14:55;;;;;;;1.95;0.90;;;19.90;99.90;;;;;;6662868;89;20229;-78
2021/10/02 13:25:17;;;;;;;2.20;0.82;;;19.60;99.90;;;;;;6664505;89;20682;-80
2021/10/02 13:35:21;;;;;;;2.72;0.80;;;18.70;99.90;;;;;;6662746;89;20426;-78
2021/10/02 13:45:33;;;;;;;4.90;1.20;;;18.40;99.90;;;;;;6662856;89;20692;-78
2021/10/02 13:55:34;;;;;;;2.97;1.00;;;18.00;99.90;;;;;;6664182;88;20274;-77
2021/10/02 14:05:34;;;;;;;3.95;1.10;;;17.80;99.90;;;;;;6660967;89;20257;-76
2021/10/02 14:15:35;;;;;;;2.33;0.90;;;17.90;99.90;;;;;;6660628;89;20221;-77
2021/10/02 14:25:35;;;;;;;2.80;1.10;;;17.90;99.90;;;;;;6660740;89;20186;-76
2021/10/02 14:35:36;;;;;;;2.90;1.33;;;18.20;99.90;;;;;;6661356;89;20187;-77
2021/10/02 14:45:37;;;;;;;3.03;1.27;;;18.20;99.90;;;;;;6661342;89;20302;-77
2021/10/02 14:55:39;;;;;;;3.53;2.00;;;18.10;99.90;;;;;;6667127;89;20223;-76
2021/10/02 15:05:40;;;;;;;4.90;1.50;;;18.00;99.90;;;;;;6661514;89;20248;-76
2021/10/02 15:15:41;;;;;;;2.40;1.12;;;18.10;99.90;;;;;;6667260;89;20217;-77
2021/10/02 15:25:42;;;;;;;3.30;1.20;;;18.10;99.90;;;;;;6654450;89;20195;-77
2021/10/02 15:35:44;;;;;;;2.45;1.40;;;17.90;99.90;;;;;;6658036;89;20377;-77
2021/10/02 15:45:49;;;;;;;9.15;3.58;;;17.80;99.90;;;;;;6661221;89;20217;-78
2021/10/02 15:55:59;;;;;;;4.53;1.87;;;17.80;99.90;;;;;;6668527;88;20210;-76
2021/10/02 16:06:01;;;;;;;3.65;2.08;;;17.70;99.90;;;;;;6661035;89;20189;-76
2021/10/02 16:16:05;;;;;;;5.37;2.37;;;17.70;99.90;;;;;;6659829;89;20199;-77
2021/10/02 16:26:05;;;;;;;13.57;8.32;;;17.50;99.90;;;;;;6660658;89;20177;-77
2021/10/02 16:36:06;;;;;;;5.87;3.50;;;17.40;99.90;;;;;;6657233;89;20610;-76
2021/10/02 16:46:10;;;;;;;6.80;3.37;;;17.30;99.90;;;;;;6664509;89;20316;-77
2021/10/02 16:56:10;;;;;;;4.25;2.35;;;17.20;99.90;;;;;;6679640;88;20799;-81
2021/10/02 17:06:12;;;;;;;3.67;2.10;;;17.20;99.90;;;;;;6658853;88;20202;-79
2021/10/02 17:16:13;;;;;;;3.97;2.10;;;17.20;99.90;;;;;;6662370;89;20619;-79
2021/10/02 17:26:14;;;;;;;4.35;2.30;;;17.20;99.90;;;;;;6664830;89;20201;-77
2021/10/02 17:36:14;;;;;;;4.07;1.87;;;17.00;99.90;;;;;;6660287;89;20735;-76
2021/10/02 17:46:15;;;;;;;3.70;1.73;;;17.20;99.90;;;;;;6663640;89;20684;-77
2021/10/02 17:56:17;;;;;;;3.90;1.57;;;17.20;99.90;;;;;;6662241;88;20210;-79
2021/10/02 18:06:19;;;;;;;2.58;1.40;;;17.20;99.90;;;;;;6662563;89;20209;-78
2021/10/02 18:16:19;;;;;;;3.80;1.30;;;17.50;99.90;;;;;;6661934;89;20238;-77
2021/10/02 18:36:29;;;;;;;1.70;0.98;;;17.70;99.90;;;;;;6645591;88;20751;-79
2021/10/02 18:46:30;;;;;;;3.22;1.20;;;17.70;99.90;;;;;;6648464;88;20582;-77
2021/10/02 18:56:31;;;;;;;2.78;1.25;;;17.80;99.90;;;;;;6653893;88;20239;-79
2021/10/02 19:06:33;;;;;;;3.60;1.58;;;17.90;99.90;;;;;;6654709;88;20745;-78
2021/10/02 19:16:34;;;;;;;2.45;1.27;;;17.80;99.90;;;;;;6651968;88;20266;-77
2021/10/02 19:26:35;;;;;;;3.30;1.40;;;17.90;99.90;;;;;;6646613;88;20357;-77
2021/10/02 19:36:36;;;;;;;4.12;1.83;;;18.20;99.90;;;;;;6648488;88;20306;-79
2021/10/02 19:46:37;;;;;;;3.10;1.62;;;18.20;99.90;;;;;;6647618;88;20209;-77
2021/10/02 19:56:38;;;;;;;4.03;1.77;;;18.20;99.90;;;;;;6645286;88;20226;-77
2021/10/02 20:06:39;;;;;;;5.20;1.95;;;18.30;99.90;;;;;;6649948;88;20542;-78
2021/10/02 20:16:41;;;;;;;3.50;2.00;;;18.40;99.90;;;;;;6649312;88;20219;-79
2021/10/02 20:26:42;;;;;;;3.95;1.87;;;18.40;99.90;;;;;;6656930;89;20179;-78
2021/10/02 20:36:42;;;;;;;4.00;2.17;;;18.30;99.90;;;;;;6656059;89;20188;-77
2021/10/02 20:46:43;;;;;;;3.80;2.03;;;18.30;99.90;;;;;;6655157;89;20347;-79
2021/10/02 20:56:44;;;;;;;3.85;2.50;;;18.40;99.90;;;;;;6654990;89;20273;-80
2021/10/02 21:06:48;;;;;;;4.80;2.62;;;18.40;99.90;;;;;;6656873;89;20192;-77
2021/10/02 21:16:52;;;;;;;5.40;2.50;;;18.50;99.90;;;;;;6658450;88;20245;-77
2021/10/02 21:26:53;;;;;;;7.93;2.95;;;18.70;99.90;;;;;;6668275;89;20278;-77
2021/10/02 21:36:56;;;;;;;5.37;2.55;;;18.80;99.90;;;;;;6664513;89;20218;-79
2021/10/02 21:46:57;;;;;;;3.97;2.62;;;18.80;99.90;;;;;;6664186;89;20348;-79
2021/10/02 21:57:00;;;;;;;4.60;3.17;;;18.60;99.90;;;;;;6669135;89;20953;-77
2021/10/02 22:07:00;;;;;;;4.78;2.70;;;18.60;99.90;;;;;;6683393;89;20695;-77
2021/10/02 22:17:01;;;;;;;3.92;2.62;;;18.90;99.90;;;;;;6680305;89;20213;-79
2021/10/02 22:27:05;;;;;;;6.28;2.60;;;19.00;99.90;;;;;;6681154;89;20312;-78
2021/10/02 22:37:06;;;;;;;5.73;2.30;;;19.10;99.90;;;;;;6655249;89;20187;-77
2021/10/02 22:47:07;;;;;;;5.93;2.62;;;19.20;99.90;;;;;;6679483;89;20519;-78
2021/10/02 22:57:08;;;;;;;3.87;2.28;;;19.30;99.90;;;;;;6660506;89;20191;-77
2021/10/02 23:07:09;;;;;;;4.72;1.75;;;19.50;99.90;;;;;;6659866;89;20725;-77
2021/10/02 23:17:16;;;;;;;2.80;1.83;;;19.90;99.90;;;;;;6655906;89;20339;-76
2021/10/02 23:27:19;;;;;;;6.43;1.75;;;19.80;99.90;;;;;;6659959;89;20191;-79
2021/10/02 23:37:20;;;;;;;4.53;1.87;;;19.70;99.90;;;;;;6669150;89;20256;-76
2021/10/02 23:57:29;;;;;;;5.62;1.83;;;19.60;99.90;;;;;;6779735;88;20200;-82
